Rigby, ID

6:18 PM MST on February 09, 2016 (GMT -0700)
Labelle | | Change Station
CLOSE
Current Station
Personal Weather Station
Location: Rigby, ID
Elevation: 4865 ft
Nearby Weather Stations
Active Advisory: Dense Fog Advisory

Elev 4865 ft 43.70 °N, 111.89 °W | Updated 9 minutes ago

Mostly Cloudy
Mostly Cloudy
28.0 °F
Feels Like 28 °F
N
0.0
Wind Variable Wind from ESE

Today
High -- | Low -- °F
--% Chance of Precip.
Yesterday
High -- | Low -- °F
Precip. -- in
Pressure 30.66 in
Visibility 10.0 miles
Clouds Clear
Windchill 28 °F
Dew Point 21 °F
Humidity 74%
Rainfall 0.00 in
Snow Depth Not available.
7:34 AM 5:49 PM
Waxing Crescent, 3% visible
METAR KRXE 100053Z AUTO 00000KT 10SM CLR M04/M07 A3048 RMK AO2 SLP382 T10391072
Pressure 30.66 in
Visibility 10.0 miles
Clouds Clear
Windchill 28 °F
Dew Point 21 °F
Humidity 74%
Rainfall 0.00 in
Snow Depth Not available.
7:34 AM 5:49 PM
Waxing Crescent, 3% visible
METAR KRXE 100053Z AUTO 00000KT 10SM CLR M04/M07 A3048 RMK AO2 SLP382 T10391072

10-Day Weather Forecast

Almanac

Astronomy

Feb. 09, 2016 Rise Set
Actual Time
Civil Twilight
Nautical Twilight
Astronomical Twilight
Moon
Length of Visible Light
Length of Day
Tomorrow will be .
, % of the Moon is Illuminated

Today's Extremes

State Highs State Lows

Community

WunderPhotos

Upload Photos

1,891,752 photos uploaded!

WunderBlog® & News

Nearby

Air Quality

  Air Quality AQ Index Pollutant
Not available.

Snow Depth

Station Depth Elevation

Earthquake Activity

City Distance Mag. Time & Date
Minimum magnitude displayed is 2.5.

Coastal Water Temperatures

Place Temperature

Stations

Nearby Weather Stations

Station Location Temp. Windchill Dew Point Humidity Wind Precip. Elev Updated Type
                   

Watches & Warnings

Dense Fog Advisory
Issued: 2:06 PM MST Feb. 9, 2016 – National Weather Service

... Dense fog advisory in effect from 2 am to noon MST Wednesday...

The National Weather Service in Pocatello has issued a dense fog
advisory... which is in effect from 2 am to noon MST Wednesday.

* Visibility... fog will reduce visibility below one mile and areas
of visibility less than one quarter mile are expected.

* Impacts... fog can freeze on Road surfaces causing black ice that
is difficult to see.

Precautionary/preparedness actions...

A dense fog advisory means visibilities will frequently be
reduced to less than one quarter mile. If driving... slow down...
use your headlights on low beam... and leave plenty of distance
ahead of you.